Terminal Aerodrome Forecast
Issued by NWS

Home | Current Version | Previous Version | Text Only | Print | Product List | Glossary On
Versions: 1 2 3 4 5 6 7 8 9 10 11 12 13 14 15 16 17 18 19 20
000
FTAK31 PANC 302342
TAFADL
TAF
PADL 302342Z 0100/0124 13015G22KT P6SM SCT025 BKN150
      TEMPO 0100/0102 BKN025
     FM010600 09026G37KT P6SM VCSH SCT040 OVC060 WS020/15050KT
     FM011200 10026G37KT 3SM -RA BKN015 OVC025 WS020/13060KT
     FM012100 16022G32KT 4SM -RA BR OVC015=

USA.gov is the U.S. government's official web portal to all federal, state and local government web resources and services.